Time;durP1;ratioP1;P1;durP2;ratioP2;P2;SDS_P1;SDS_P2;PMS_P1;PMS_P2;Temp;Humidity;BMP_temperature;BMP_pressure;BME280_temperature;BME280_humidity;BME280_pressure;Samples;Min_cycle;Max_cycle;Signal;HPM_P1;HPM_P2
2022/10/07 00:00:54;;;;;;;11.65;2.40;;;15.10;99.90;;;;;;4930757;29;20056;-83
2022/10/07 00:03:24;;;;;;;7.97;2.70;;;15.10;99.90;;;;;;4927025;29;20052;-80
2022/10/07 00:06:08;;;;;;;8.70;2.90;;;15.10;99.90;;;;;;4928079;29;20051;-83
2022/10/07 00:08:36;;;;;;;9.45;2.65;;;15.00;99.90;;;;;;4926253;29;20056;-83
2022/10/07 00:11:09;;;;;;;8.20;2.78;;;15.00;99.90;;;;;;4930896;29;20490;-83
2022/10/07 00:13:40;;;;;;;7.55;2.75;;;14.90;99.90;;;;;;4933988;29;20051;-81
2022/10/07 00:16:10;;;;;;;7.03;2.20;;;14.80;99.90;;;;;;4939253;29;20059;-83
2022/10/07 00:18:38;;;;;;;7.43;2.53;;;14.90;99.90;;;;;;4933299;29;20052;-84
2022/10/07 00:21:08;;;;;;;8.23;2.78;;;14.80;99.90;;;;;;4931424;29;20426;-83
2022/10/07 00:23:35;;;;;;;4.43;2.63;;;14.70;99.90;;;;;;4936333;29;20394;-84
2022/10/07 00:26:04;;;;;;;5.72;2.70;;;14.70;99.90;;;;;;4940784;29;20292;-83
2022/10/07 00:28:32;;;;;;;10.10;2.97;;;14.70;99.90;;;;;;4938454;29;20506;-84
2022/10/07 00:31:00;;;;;;;6.05;2.58;;;14.60;99.90;;;;;;4945633;29;20107;-83
2022/10/07 00:33:33;;;;;;;10.38;3.03;;;14.60;99.90;;;;;;4936070;29;20047;-82
2022/10/07 00:36:00;;;;;;;8.10;2.45;;;14.60;99.90;;;;;;4920045;29;20044;-82
2022/10/07 00:38:27;;;;;;;9.25;2.88;;;14.50;99.90;;;;;;4919862;29;20151;-83
2022/10/07 00:40:53;;;;;;;11.10;2.67;;;14.50;99.90;;;;;;4926313;29;20071;-83
2022/10/07 00:43:30;;;;;;;6.53;2.50;;;14.50;99.90;;;;;;4932108;29;20052;-84
2022/10/07 00:46:14;;;;;;;4.68;2.47;;;14.40;99.90;;;;;;4925930;29;20055;-82
2022/10/07 00:48:43;;;;;;;8.20;2.72;;;14.40;99.90;;;;;;4935487;29;20134;-82
2022/10/07 00:51:10;;;;;;;11.98;2.97;;;14.40;99.90;;;;;;4936575;29;20080;-83
2022/10/07 00:53:40;;;;;;;8.55;2.92;;;14.30;99.90;;;;;;4934327;29;20092;-83
2022/10/07 00:56:07;;;;;;;9.15;2.83;;;14.30;99.90;;;;;;4924164;29;20079;-83
2022/10/07 00:58:36;;;;;;;9.20;3.17;;;14.30;99.90;;;;;;4933602;29;20048;-83
2022/10/07 01:01:03;;;;;;;7.78;2.67;;;14.20;99.90;;;;;;4941066;29;20058;-82
2022/10/07 01:03:32;;;;;;;5.50;2.55;;;14.20;99.90;;;;;;4937775;29;20062;-83
2022/10/07 01:05:59;;;;;;;5.70;2.83;;;14.10;99.90;;;;;;4938219;29;20562;-82
2022/10/07 01:08:26;;;;;;;7.97;2.65;;;14.10;99.90;;;;;;4923068;29;20447;-83
2022/10/07 01:11:02;;;;;;;9.60;2.40;;;14.10;99.90;;;;;;4924947;29;20060;-82
2022/10/07 01:13:37;;;;;;;5.40;2.50;;;14.10;99.90;;;;;;4932903;29;20059;-82
2022/10/07 01:16:28;;;;;;;10.50;2.97;;;14.00;99.90;;;;;;4936428;29;20091;-82
2022/10/07 01:19:13;;;;;;;10.18;2.40;;;14.00;99.90;;;;;;4930059;29;20054;-83
2022/10/07 01:22:12;;;;;;;8.38;2.45;;;14.00;99.90;;;;;;4937063;29;20503;-83
2022/10/07 01:25:12;;;;;;;11.75;2.67;;;14.00;99.90;;;;;;4937598;29;20152;-83
2022/10/07 01:27:45;;;;;;;5.85;2.15;;;14.00;99.90;;;;;;4932203;29;20058;-82
2022/10/07 01:30:12;;;;;;;9.07;2.58;;;14.00;99.90;;;;;;4934371;29;20052;-82
2022/10/07 01:32:41;;;;;;;8.20;2.40;;;14.00;99.90;;;;;;4936065;29;20413;-82
2022/10/07 01:35:13;;;;;;;9.50;2.95;;;14.00;99.90;;;;;;4921602;29;20048;-82
2022/10/07 01:37:45;;;;;;;8.02;3.10;;;14.00;99.90;;;;;;4924272;29;20055;-83
2022/10/07 01:40:18;;;;;;;14.60;2.17;;;13.90;99.90;;;;;;4925472;29;20048;-82
2022/10/07 01:42:46;;;;;;;4.97;2.33;;;14.00;99.90;;;;;;4925438;29;20047;-82
2022/10/07 01:45:20;;;;;;;10.70;2.67;;;13.90;99.90;;;;;;4930126;29;20051;-82
2022/10/07 01:47:48;;;;;;;6.63;2.50;;;13.90;99.90;;;;;;4935406;29;20108;-83
2022/10/07 01:50:17;;;;;;;5.65;2.45;;;13.90;99.90;;;;;;4939339;29;20138;-83
2022/10/07 01:52:50;;;;;;;9.50;2.75;;;13.90;99.90;;;;;;4926191;29;20151;-83
2022/10/07 01:55:35;;;;;;;4.75;2.05;;;13.90;99.90;;;;;;4930262;29;20152;-84
2022/10/07 01:58:40;;;;;;;12.48;4.00;;;13.90;99.90;;;;;;4925094;29;20391;-81
2022/10/07 02:01:37;;;;;;;7.53;2.15;;;13.80;99.90;;;;;;4930868;29;20082;-84
2022/10/07 02:04:22;;;;;;;6.72;2.13;;;13.80;99.90;;;;;;4927325;29;20473;-83
2022/10/07 02:06:54;;;;;;;7.22;2.28;;;13.80;99.90;;;;;;4930223;29;20058;-82
2022/10/07 02:09:36;;;;;;;8.20;2.33;;;13.80;99.90;;;;;;4935913;29;20142;-81
2022/10/07 02:12:30;;;;;;;6.30;2.47;;;13.80;99.90;;;;;;4931877;29;20533;-82
2022/10/07 02:15:16;;;;;;;8.57;2.78;;;13.80;99.90;;;;;;4936218;29;20056;-83
2022/10/07 02:17:53;;;;;;;12.95;2.40;;;13.80;99.90;;;;;;4938190;29;20058;-82
2022/10/07 02:20:24;;;;;;;5.30;1.90;;;13.70;99.90;;;;;;4925399;29;20063;-83
2022/10/07 02:22:53;;;;;;;6.43;2.70;;;13.70;99.90;;;;;;4935119;29;20091;-82
2022/10/07 02:25:22;;;;;;;5.15;2.08;;;13.70;99.90;;;;;;4935605;29;20057;-84
2022/10/07 02:27:52;;;;;;;8.52;2.40;;;13.70;99.90;;;;;;4929719;29;20059;-82
2022/10/07 02:30:20;;;;;;;4.85;2.20;;;13.70;99.90;;;;;;4937859;29;20048;-83
2022/10/07 02:32:57;;;;;;;7.60;2.63;;;13.70;99.90;;;;;;4934044;29;20055;-82
2022/10/07 02:35:48;;;;;;;8.80;2.30;;;13.70;99.90;;;;;;4938207;29;20052;-83
2022/10/07 02:38:16;;;;;;;5.03;2.28;;;13.60;99.90;;;;;;4934126;29;20525;-83
2022/10/07 02:41:04;;;;;;;11.35;2.70;;;13.70;99.90;;;;;;4939243;29;20451;-82
2022/10/07 02:43:43;;;;;;;10.10;2.80;;;13.60;99.90;;;;;;4937045;29;20044;-83
2022/10/07 02:46:21;;;;;;;5.32;2.10;;;13.50;99.90;;;;;;4948003;29;20048;-83
2022/10/07 02:49:00;;;;;;;8.55;2.25;;;13.50;99.90;;;;;;4948081;29;20052;-83
2022/10/07 02:51:41;;;;;;;6.63;2.72;;;13.50;99.90;;;;;;4938083;29;20070;-83
2022/10/07 02:54:08;;;;;;;7.65;2.20;;;13.50;99.90;;;;;;4940238;29;20410;-82
2022/10/07 02:56:37;;;;;;;6.13;2.38;;;13.40;99.90;;;;;;4935275;29;20086;-81
2022/10/07 02:59:07;;;;;;;6.90;2.33;;;13.40;99.90;;;;;;4931506;29;20059;-82
2022/10/07 03:01:41;;;;;;;8.82;1.95;;;13.40;99.90;;;;;;4927037;29;20055;-80
2022/10/07 03:04:08;;;;;;;8.93;2.85;;;13.40;99.90;;;;;;4930602;29;20047;-83
2022/10/07 03:06:35;;;;;;;3.55;2.00;;;13.40;99.90;;;;;;4936595;29;20087;-82
2022/10/07 03:09:03;;;;;;;3.75;2.33;;;13.40;99.90;;;;;;4933172;29;20387;-82
2022/10/07 03:11:30;;;;;;;6.57;2.60;;;13.40;99.90;;;;;;4923383;29;20066;-84
2022/10/07 03:13:57;;;;;;;9.48;2.80;;;13.40;99.90;;;;;;4922850;29;20048;-83
2022/10/07 03:16:24;;;;;;;3.03;1.85;;;13.40;99.90;;;;;;4938698;29;20048;-80
2022/10/07 03:18:50;;;;;;;7.68;2.38;;;13.40;99.90;;;;;;4941542;29;20054;-83
2022/10/07 03:21:17;;;;;;;5.97;2.38;;;13.40;99.90;;;;;;4928678;29;20513;-84
2022/10/07 03:23:44;;;;;;;6.60;2.38;;;13.40;99.90;;;;;;4926337;29;20455;-83
2022/10/07 03:26:10;;;;;;;7.95;2.15;;;13.40;99.90;;;;;;4940815;29;20055;-82
2022/10/07 03:28:37;;;;;;;7.47;2.35;;;13.30;99.90;;;;;;4935539;29;20594;-84
2022/10/07 03:31:06;;;;;;;5.18;2.50;;;13.30;99.90;;;;;;4924647;29;20059;-84
2022/10/07 03:33:33;;;;;;;5.38;1.90;;;13.30;99.90;;;;;;4936339;29;20083;-83
2022/10/07 03:36:00;;;;;;;9.10;2.35;;;13.30;99.90;;;;;;4937658;29;20079;-83
2022/10/07 03:38:27;;;;;;;4.63;1.95;;;13.30;99.90;;;;;;4930469;29;20084;-83
2022/10/07 03:40:53;;;;;;;5.80;2.30;;;13.20;99.90;;;;;;4941527;29;20051;-83
2022/10/07 03:43:20;;;;;;;6.15;2.50;;;13.20;99.90;;;;;;4930014;29;20056;-83
2022/10/07 03:45:50;;;;;;;9.05;2.30;;;13.20;99.90;;;;;;4929373;29;20052;-83
2022/10/07 03:48:17;;;;;;;4.38;2.38;;;13.20;99.90;;;;;;4941857;29;20142;-83
2022/10/07 03:50:48;;;;;;;6.07;2.38;;;13.20;99.90;;;;;;4934782;29;20428;-83
2022/10/07 03:53:15;;;;;;;7.28;3.08;;;13.10;99.90;;;;;;4936841;29;20044;-84
2022/10/07 03:55:41;;;;;;;8.63;2.70;;;13.10;99.90;;;;;;4951026;29;20054;-82
2022/10/07 03:58:08;;;;;;;9.18;2.70;;;13.00;99.90;;;;;;4939926;29;20032;-83
2022/10/07 04:00:35;;;;;;;10.02;2.97;;;13.00;99.90;;;;;;4936430;29;20600;-83
2022/10/07 04:03:01;;;;;;;7.45;3.05;;;13.00;99.90;;;;;;4955320;29;20047;-83
2022/10/07 04:05:28;;;;;;;8.68;2.92;;;13.00;99.90;;;;;;4945548;29;20079;-83
2022/10/07 04:07:55;;;;;;;10.80;3.20;;;13.00;99.90;;;;;;4942398;29;20536;-84
2022/10/07 04:10:23;;;;;;;10.73;3.72;;;13.10;99.90;;;;;;4940311;29;20130;-84
2022/10/07 04:12:51;;;;;;;8.40;5.20;;;12.90;99.90;;;;;;4935646;29;20430;-83
2022/10/07 04:15:18;;;;;;;6.53;3.47;;;12.90;99.90;;;;;;4932809;29;20056;-83
2022/10/07 04:17:46;;;;;;;7.35;2.80;;;12.90;99.90;;;;;;4937843;29;20553;-82
2022/10/07 04:20:15;;;;;;;5.28;2.38;;;12.90;99.90;;;;;;4939739;29;20059;-83
2022/10/07 04:22:42;;;;;;;8.13;2.45;;;12.80;99.90;;;;;;4939221;29;20052;-85
2022/10/07 04:27:57;;;;;;;5.97;2.35;;;12.80;99.90;;;;;;4939397;29;20134;-83
2022/10/07 04:30:26;;;;;;;10.77;2.47;;;12.80;99.90;;;;;;4929423;29;20056;-84
2022/10/07 04:32:53;;;;;;;8.30;3.22;;;12.80;99.90;;;;;;4936842;29;20044;-84
2022/10/07 04:35:21;;;;;;;10.40;3.33;;;12.80;99.90;;;;;;4935819;29;20044;-84
2022/10/07 04:37:49;;;;;;;7.28;3.50;;;12.80;99.90;;;;;;4950653;29;20056;-83
2022/10/07 04:40:18;;;;;;;4.18;3.10;;;12.80;99.90;;;;;;4950298;29;20139;-83
2022/10/07 04:45:32;;;;;;;11.18;3.00;;;12.70;99.90;;;;;;4938591;29;20116;-84
2022/10/07 04:48:00;;;;;;;5.90;2.80;;;12.70;99.90;;;;;;4935862;29;20108;-84
2022/10/07 04:50:27;;;;;;;11.73;2.92;;;12.70;99.90;;;;;;4949940;29;20063;-83
2022/10/07 04:52:54;;;;;;;9.07;3.20;;;12.70;99.90;;;;;;4944110;29;20115;-83
2022/10/07 04:55:21;;;;;;;15.13;3.65;;;12.60;99.90;;;;;;4943335;29;20040;-83
2022/10/07 04:57:48;;;;;;;7.60;3.53;;;12.60;99.90;;;;;;4938898;29;20048;-84
2022/10/07 05:00:15;;;;;;;13.00;3.20;;;12.60;99.90;;;;;;4946840;29;20471;-83
2022/10/07 05:02:44;;;;;;;11.23;3.85;;;12.60;99.90;;;;;;4940596;29;20123;-83
2022/10/07 05:05:11;;;;;;;7.15;3.17;;;12.60;99.90;;;;;;4944293;29;20115;-84
2022/10/07 05:07:37;;;;;;;4.10;2.40;;;12.50;99.90;;;;;;4940720;29;20044;-84
2022/10/07 05:10:05;;;;;;;10.35;3.03;;;12.50;99.90;;;;;;4945184;29;20127;-83
2022/10/07 05:12:31;;;;;;;9.40;3.30;;;12.50;99.90;;;;;;4948219;29;20076;-84
2022/10/07 05:14:58;;;;;;;9.68;2.85;;;12.50;99.90;;;;;;4949389;29;20056;-84
2022/10/07 05:17:25;;;;;;;10.90;3.40;;;12.50;99.90;;;;;;4950714;29;20053;-84
2022/10/07 05:19:51;;;;;;;6.68;2.63;;;12.50;99.90;;;;;;4953293;29;20130;-83
2022/10/07 05:22:18;;;;;;;7.95;2.55;;;12.50;99.90;;;;;;4944868;29;20051;-82
2022/10/07 05:24:45;;;;;;;8.68;2.65;;;12.50;99.90;;;;;;4960641;28;20631;-83
2022/10/07 05:27:12;;;;;;;8.32;3.22;;;12.60;99.90;;;;;;4949066;29;20056;-83
2022/10/07 05:29:39;;;;;;;8.23;3.50;;;12.70;99.90;;;;;;4942660;29;20059;-83
2022/10/07 05:32:06;;;;;;;5.68;3.35;;;12.70;99.90;;;;;;4938726;29;20084;-82
2022/10/07 05:34:33;;;;;;;8.85;3.50;;;12.70;99.90;;;;;;4933516;29;20134;-84
2022/10/07 05:37:00;;;;;;;7.72;2.90;;;12.70;99.90;;;;;;4937451;29;20074;-82
2022/10/07 05:39:26;;;;;;;10.55;3.92;;;12.70;99.90;;;;;;4935502;29;20138;-83
2022/10/07 05:41:54;;;;;;;5.38;3.53;;;12.70;99.90;;;;;;4937351;29;20050;-82
2022/10/07 05:44:20;;;;;;;11.68;4.30;;;12.70;99.90;;;;;;4935639;28;20070;-83
2022/10/07 05:46:48;;;;;;;8.50;4.15;;;12.70;99.90;;;;;;4942247;29;20055;-83
2022/10/07 05:49:14;;;;;;;9.27;3.42;;;12.70;99.90;;;;;;4936290;29;20070;-83
2022/10/07 05:51:41;;;;;;;10.48;3.53;;;12.60;99.90;;;;;;4942178;29;20107;-83
2022/10/07 05:54:08;;;;;;;8.95;2.92;;;12.60;99.90;;;;;;4952904;29;20050;-83
2022/10/07 05:56:37;;;;;;;8.23;3.42;;;12.60;99.90;;;;;;4948635;29;20048;-82
2022/10/07 05:59:04;;;;;;;10.52;3.53;;;12.60;99.90;;;;;;4950230;29;20078;-81
2022/10/07 06:01:31;;;;;;;10.55;3.67;;;12.60;99.90;;;;;;4943574;29;20248;-83
2022/10/07 06:03:58;;;;;;;9.35;3.22;;;12.70;99.90;;;;;;4950376;29;20071;-83
2022/10/07 06:06:25;;;;;;;11.85;3.50;;;12.70;99.90;;;;;;4949428;29;20050;-80
2022/10/07 06:08:52;;;;;;;9.40;3.55;;;12.60;99.90;;;;;;4940634;29;20056;-82
2022/10/07 06:14:05;;;;;;;9.20;3.08;;;12.70;99.90;;;;;;4933469;29;20048;-82
2022/10/07 06:16:31;;;;;;;9.02;3.00;;;12.70;99.90;;;;;;4938145;29;20417;-81
2022/10/07 06:18:59;;;;;;;6.45;3.00;;;12.80;99.90;;;;;;4943640;29;20099;-82
2022/10/07 06:21:26;;;;;;;7.90;3.00;;;12.80;99.90;;;;;;4949028;29;20104;-82
2022/10/07 06:23:55;;;;;;;7.13;3.80;;;12.80;99.90;;;;;;4936899;29;20037;-83
2022/10/07 06:26:22;;;;;;;8.88;3.75;;;12.80;99.90;;;;;;4939241;29;20505;-83
2022/10/07 06:28:49;;;;;;;8.18;3.97;;;12.90;99.90;;;;;;4944042;29;20040;-84
2022/10/07 06:31:21;;;;;;;6.30;3.60;;;13.00;99.90;;;;;;4941615;29;20059;-83
2022/10/07 06:33:49;;;;;;;8.02;3.50;;;12.90;99.90;;;;;;4946753;29;20064;-82
2022/10/07 06:36:16;;;;;;;7.82;3.60;;;13.00;99.90;;;;;;4951473;29;20072;-85
2022/10/07 06:38:48;;;;;;;12.18;4.20;;;13.00;99.90;;;;;;4940231;29;20488;-82
2022/10/07 06:41:15;;;;;;;6.45;3.58;;;13.10;99.90;;;;;;4945287;29;20104;-82
2022/10/07 06:43:42;;;;;;;10.15;3.13;;;13.10;99.90;;;;;;4936128;29;20048;-83
2022/10/07 06:46:14;;;;;;;9.30;4.05;;;13.10;99.90;;;;;;4945720;29;20052;-82
2022/10/07 06:48:41;;;;;;;8.82;4.05;;;13.10;99.90;;;;;;4945552;29;20051;-83
2022/10/07 06:51:14;;;;;;;8.00;3.70;;;13.30;99.90;;;;;;4942881;29;20083;-83
2022/10/07 06:53:42;;;;;;;7.82;4.28;;;13.20;99.90;;;;;;4949299;29;20143;-82
2022/10/07 06:56:10;;;;;;;8.80;3.92;;;13.20;99.90;;;;;;4947791;29;20079;-83
2022/10/07 06:58:37;;;;;;;8.57;4.30;;;13.30;99.90;;;;;;4948183;29;20450;-82
2022/10/07 07:01:04;;;;;;;6.57;3.65;;;13.30;99.90;;;;;;4948612;29;20056;-83
2022/10/07 07:03:31;;;;;;;7.90;3.88;;;13.30;99.90;;;;;;4935947;29;20070;-83
2022/10/07 07:05:58;;;;;;;12.63;4.13;;;13.30;99.90;;;;;;4944314;29;20056;-83
2022/10/07 07:08:27;;;;;;;10.85;4.30;;;13.40;99.90;;;;;;4946100;29;20506;-82
2022/10/07 07:10:55;;;;;;;10.07;4.60;;;13.40;99.90;;;;;;4950031;29;20064;-83
2022/10/07 07:13:21;;;;;;;6.72;4.28;;;13.40;99.90;;;;;;4936942;29;20052;-83
2022/10/07 07:15:58;;;;;;;9.77;5.20;;;13.50;99.90;;;;;;4946121;29;20042;-83
2022/10/07 07:18:25;;;;;;;9.13;4.82;;;13.50;99.90;;;;;;4954877;29;20050;-83
2022/10/07 07:20:52;;;;;;;6.30;4.40;;;13.50;99.90;;;;;;4955169;29;20028;-81
2022/10/07 07:23:19;;;;;;;12.63;5.00;;;13.60;99.90;;;;;;4940926;29;20112;-83
2022/10/07 07:25:45;;;;;;;15.43;5.18;;;13.60;99.90;;;;;;4936092;29;20135;-83
2022/10/07 07:28:14;;;;;;;10.65;4.18;;;13.60;99.90;;;;;;4943319;29;20058;-81
2022/10/07 07:30:41;;;;;;;8.23;4.50;;;13.70;99.90;;;;;;4939495;29;20044;-83
2022/10/07 07:33:09;;;;;;;10.10;4.43;;;13.80;99.90;;;;;;4937153;29;20047;-82
2022/10/07 07:35:40;;;;;;;12.40;5.85;;;13.70;99.90;;;;;;4930847;29;20055;-84
2022/10/07 07:38:07;;;;;;;12.32;4.75;;;13.80;99.90;;;;;;4931855;29;20485;-83
2022/10/07 07:40:38;;;;;;;10.85;5.45;;;13.80;99.90;;;;;;4938644;29;20493;-84
2022/10/07 07:43:06;;;;;;;7.88;5.30;;;13.90;99.90;;;;;;4943336;29;20112;-84
2022/10/07 07:45:36;;;;;;;13.88;5.25;;;13.90;99.90;;;;;;4948218;29;20060;-84
2022/10/07 07:48:03;;;;;;;12.43;5.43;;;14.00;99.90;;;;;;4948806;29;20052;-84
2022/10/07 07:50:30;;;;;;;10.50;4.93;;;14.00;99.90;;;;;;4942910;29;20106;-83
2022/10/07 07:52:58;;;;;;;10.73;5.50;;;14.00;99.90;;;;;;4932101;29;20052;-84
2022/10/07 07:55:25;;;;;;;11.60;5.90;;;14.10;99.90;;;;;;4931660;29;20052;-84
2022/10/07 07:57:52;;;;;;;10.55;5.30;;;14.10;99.90;;;;;;4942793;29;20052;-83
2022/10/07 08:00:19;;;;;;;12.70;5.53;;;14.10;99.90;;;;;;4944582;29;20050;-83
2022/10/07 08:02:46;;;;;;;14.15;6.90;;;14.20;99.90;;;;;;4941206;29;20066;-85
2022/10/07 08:05:13;;;;;;;23.35;7.88;;;14.20;99.90;;;;;;4938736;29;20108;-83
2022/10/07 08:07:40;;;;;;;17.88;6.75;;;14.20;99.90;;;;;;4939139;29;20482;-84
2022/10/07 08:10:07;;;;;;;18.27;6.18;;;14.30;99.90;;;;;;4951383;29;20059;-83
2022/10/07 08:12:33;;;;;;;15.57;6.00;;;14.30;99.90;;;;;;4946385;29;20387;-84
2022/10/07 08:15:00;;;;;;;15.93;6.90;;;14.40;99.90;;;;;;4954229;29;20052;-83
2022/10/07 08:17:27;;;;;;;11.55;5.78;;;14.40;99.90;;;;;;4946860;29;20048;-85
2022/10/07 08:19:55;;;;;;;16.60;6.75;;;14.40;99.90;;;;;;4940082;29;20059;-85
2022/10/07 08:22:21;;;;;;;21.92;7.70;;;14.50;99.90;;;;;;4945193;29;20139;-84
2022/10/07 08:24:48;;;;;;;20.58;7.85;;;14.50;99.90;;;;;;4963104;29;20116;-84
2022/10/07 08:27:15;;;;;;;16.48;7.10;;;14.60;99.90;;;;;;4952881;29;20149;-84
2022/10/07 08:29:41;;;;;;;17.13;6.45;;;14.60;99.90;;;;;;4945893;29;20060;-84
2022/10/07 08:32:08;;;;;;;16.95;6.85;;;14.60;99.90;;;;;;4952691;29;20067;-82
2022/10/07 08:34:35;;;;;;;13.40;6.63;;;14.70;99.90;;;;;;4950624;29;20052;-84
2022/10/07 08:37:02;;;;;;;16.15;7.32;;;14.80;99.90;;;;;;4939635;29;20131;-83
2022/10/07 08:39:30;;;;;;;11.60;6.55;;;14.80;99.90;;;;;;4941838;29;20054;-83
2022/10/07 08:42:01;;;;;;;17.27;7.15;;;14.80;99.90;;;;;;4947850;29;20047;-83
2022/10/07 08:44:43;;;;;;;21.17;7.40;;;14.80;99.90;;;;;;4942994;29;20055;-84
2022/10/07 08:47:16;;;;;;;18.77;7.75;;;14.90;99.90;;;;;;4936644;29;20140;-84
2022/10/07 08:49:43;;;;;;;15.52;6.90;;;14.90;99.90;;;;;;4940004;29;20103;-84
2022/10/07 08:52:36;;;;;;;18.92;7.10;;;15.00;99.90;;;;;;4948538;29;20058;-83
2022/10/07 08:55:29;;;;;;;14.18;6.75;;;15.00;99.90;;;;;;4944680;29;20072;-83
2022/10/07 08:58:14;;;;;;;13.48;6.45;;;15.10;99.90;;;;;;4941492;29;20178;-84
2022/10/07 09:00:48;;;;;;;16.52;7.38;;;15.10;99.90;;;;;;4941294;29;20111;-83
2022/10/07 09:03:51;;;;;;;30.10;7.70;;;15.10;99.90;;;;;;4947314;29;20051;-84
2022/10/07 09:06:41;;;;;;;13.13;6.38;;;15.20;99.90;;;;;;4939789;29;20048;-84
2022/10/07 09:09:15;;;;;;;17.52;7.22;;;15.20;99.90;;;;;;4937393;29;20167;-83
2022/10/07 09:11:46;;;;;;;10.63;6.13;;;15.30;99.90;;;;;;4949717;29;20103;-85
2022/10/07 09:14:36;;;;;;;32.13;7.88;;;15.30;99.90;;;;;;4945938;29;20058;-84
2022/10/07 09:17:26;;;;;;;13.75;6.68;;;15.30;99.90;;;;;;4944958;29;20043;-84
2022/10/07 09:20:05;;;;;;;14.93;6.57;;;15.30;99.90;;;;;;4932976;29;20123;-83
2022/10/07 09:22:36;;;;;;;14.68;6.35;;;15.40;99.90;;;;;;4938426;29;20088;-83
2022/10/07 09:25:14;;;;;;;16.60;6.75;;;15.50;99.90;;;;;;4943774;29;20055;-83
2022/10/07 09:27:41;;;;;;;14.20;6.47;;;15.50;99.90;;;;;;4943438;29;20061;-83
2022/10/07 09:30:12;;;;;;;12.23;6.25;;;15.50;99.90;;;;;;4948426;29;20069;-83
2022/10/07 09:32:41;;;;;;;;;;;15.50;99.90;;;;;;4949839;29;20142;-84
2022/10/07 09:35:12;;;;;;;14.65;6.78;;;15.60;99.90;;;;;;4944991;29;20048;-83
2022/10/07 09:37:55;;;;;;;17.83;8.00;;;15.60;99.90;;;;;;4943610;29;20052;-84
2022/10/07 09:40:30;;;;;;;15.07;7.70;;;15.70;99.90;;;;;;4935442;29;20489;-84
2022/10/07 09:42:58;;;;;;;14.25;7.18;;;15.70;99.90;;;;;;4943259;29;20055;-84
2022/10/07 09:45:32;;;;;;;12.98;7.60;;;15.70;99.90;;;;;;4946949;29;20063;-83
2022/10/07 09:48:06;;;;;;;23.98;7.93;;;15.70;99.90;;;;;;4941513;29;20092;-84
2022/10/07 09:50:42;;;;;;;22.50;7.93;;;15.90;99.90;;;;;;4937670;29;20052;-84
2022/10/07 09:53:20;;;;;;;15.25;7.38;;;15.80;99.90;;;;;;4945386;29;20051;-83
2022/10/07 09:55:49;;;;;;;20.35;7.63;;;15.90;99.90;;;;;;4945245;29;20127;-84
2022/10/07 09:58:25;;;;;;;15.02;7.07;;;15.90;99.90;;;;;;4941265;29;20047;-84
2022/10/07 10:01:00;;;;;;;13.30;7.25;;;16.00;99.90;;;;;;4948897;29;20051;-84
2022/10/07 10:03:32;;;;;;;23.95;8.45;;;16.00;99.90;;;;;;4952138;29;20075;-83
2022/10/07 10:06:03;;;;;;;14.68;7.53;;;16.10;99.90;;;;;;4934407;29;20113;-84
2022/10/07 10:08:32;;;;;;;17.45;6.32;;;16.10;99.90;;;;;;4934256;29;20076;-84
2022/10/07 10:11:05;;;;;;;19.05;7.85;;;16.20;99.90;;;;;;4948421;29;20052;-85
2022/10/07 10:13:37;;;;;;;15.27;7.00;;;16.30;99.90;;;;;;4952635;29;20056;-84
2022/10/07 10:16:23;;;;;;;17.52;7.65;;;16.40;99.90;;;;;;4953263;29;20043;-84
2022/10/07 10:19:01;;;;;;;17.10;7.13;;;16.40;99.90;;;;;;4963389;29;20044;-85
2022/10/07 10:21:28;;;;;;;16.67;7.07;;;16.40;99.90;;;;;;4939219;29;20051;-84
2022/10/07 10:23:56;;;;;;;20.48;6.22;;;16.50;99.90;;;;;;4951525;29;20051;-84
2022/10/07 10:26:41;;;;;;;22.88;6.85;;;16.60;99.90;;;;;;4938136;29;20056;-82
2022/10/07 10:29:23;;;;;;;16.85;6.75;;;16.60;99.90;;;;;;4958737;29;20536;-84
2022/10/07 10:32:01;;;;;;;14.30;6.47;;;16.70;99.90;;;;;;4948674;29;20062;-85
2022/10/07 10:34:56;;;;;;;13.85;6.18;;;16.70;99.90;;;;;;4941013;29;20071;-84
2022/10/07 10:37:40;;;;;;;10.40;5.55;;;16.90;99.90;;;;;;4943227;29;20088;-85
2022/10/07 10:40:44;;;;;;;11.80;5.85;;;17.00;99.90;;;;;;4941689;29;20040;-85
2022/10/07 10:43:10;;;;;;;17.10;6.85;;;17.00;99.90;;;;;;4939919;29;20087;-85
2022/10/07 10:45:50;;;;;;;13.77;6.20;;;16.90;99.90;;;;;;4940671;29;20055;-84
2022/10/07 10:48:34;;;;;;;11.95;5.60;;;17.10;99.90;;;;;;4951219;29;20044;-85
2022/10/07 10:51:13;;;;;;;16.90;6.10;;;17.20;99.90;;;;;;4941273;29;20044;-85
2022/10/07 10:54:01;;;;;;;15.95;6.15;;;17.20;99.90;;;;;;4937412;29;20048;-84
2022/10/07 10:56:34;;;;;;;11.60;5.35;;;17.40;99.90;;;;;;4945041;29;20120;-83
2022/10/07 10:59:12;;;;;;;10.27;5.30;;;17.40;99.90;;;;;;4946410;29;20062;-84
2022/10/07 11:01:41;;;;;;;9.27;4.70;;;17.40;99.90;;;;;;4931840;29;20058;-85
2022/10/07 11:04:20;;;;;;;9.88;5.28;;;17.50;99.90;;;;;;4934653;29;20067;-83
2022/10/07 11:06:54;;;;;;;14.75;5.32;;;17.50;99.90;;;;;;4945190;29;20134;-83
2022/10/07 11:09:35;;;;;;;12.68;5.57;;;17.50;99.90;;;;;;4937568;29;20110;-84
2022/10/07 11:12:08;;;;;;;13.00;5.47;;;17.70;99.90;;;;;;4939950;29;20111;-84
2022/10/07 11:14:40;;;;;;;17.15;6.50;;;17.80;99.90;;;;;;4945032;29;20138;-84
2022/10/07 11:17:12;;;;;;;8.95;5.55;;;17.70;99.90;;;;;;4948616;29;20028;-83
2022/10/07 11:20:11;;;;;;;12.25;6.45;;;17.70;99.90;;;;;;4943684;29;20055;-85
2022/10/07 11:22:42;;;;;;;13.30;5.75;;;17.80;99.90;;;;;;4936199;29;20052;-84
2022/10/07 11:25:24;;;;;;;11.82;4.97;;;17.80;99.90;;;;;;4944943;29;20474;-84
2022/10/07 11:27:54;;;;;;;14.90;5.13;;;18.00;99.90;;;;;;4943346;29;20088;-84
2022/10/07 11:30:23;;;;;;;10.25;4.30;;;18.00;99.90;;;;;;4944185;29;20091;-85
2022/10/07 11:33:05;;;;;;;13.15;5.43;;;18.00;99.90;;;;;;4939218;29;20056;-83
2022/10/07 11:35:47;;;;;;;14.02;5.13;;;18.00;99.90;;;;;;4933772;29;20050;-83
2022/10/07 11:38:21;;;;;;;12.52;5.05;;;18.00;99.90;;;;;;4938229;29;20047;-85
2022/10/07 11:40:50;;;;;;;14.52;5.13;;;18.10;99.90;;;;;;4944573;29;20076;-84
2022/10/07 11:43:30;;;;;;;15.85;5.20;;;18.10;99.90;;;;;;4930082;29;20055;-84
2022/10/07 11:46:09;;;;;;;8.75;4.43;;;18.10;99.90;;;;;;4930929;29;20056;-85
2022/10/07 11:48:48;;;;;;;10.30;4.28;;;18.10;99.90;;;;;;4948334;29;20052;-83
2022/10/07 11:51:31;;;;;;;11.43;4.00;;;18.20;99.90;;;;;;4936154;29;20553;-83
2022/10/07 11:54:01;;;;;;;7.70;3.72;;;18.20;99.90;;;;;;4939990;29;20065;-84
2022/10/07 11:56:38;;;;;;;7.65;3.33;;;18.40;99.90;;;;;;4933072;29;20087;-84
2022/10/07 11:59:06;;;;;;;9.20;4.03;;;18.40;99.90;;;;;;4936272;29;20420;-84
2022/10/07 12:01:33;;;;;;;10.07;3.30;;;18.50;99.90;;;;;;4932532;29;20066;-82
2022/10/07 12:04:27;;;;;;;11.40;3.75;;;18.50;99.90;;;;;;4934679;29;20051;-81
2022/10/07 12:07:35;;;;;;;7.68;3.13;;;18.50;99.90;;;;;;4928707;29;20556;-81
2022/10/07 12:10:04;;;;;;;7.63;3.17;;;18.50;99.90;;;;;;4928533;29;20076;-81
2022/10/07 12:12:41;;;;;;;9.95;4.28;;;18.60;99.90;;;;;;4932087;29;20074;-83
2022/10/07 12:15:29;;;;;;;9.18;3.58;;;18.60;99.90;;;;;;4937439;29;20098;-83
2022/10/07 12:18:04;;;;;;;8.77;3.88;;;18.60;99.90;;;;;;4932882;29;20051;-82
2022/10/07 12:20:34;;;;;;;11.20;3.70;;;18.60;99.90;;;;;;4933808;29;20051;-82
2022/10/07 12:23:21;;;;;;;10.23;3.60;;;18.60;99.90;;;;;;4929415;29;20044;-82
2022/10/07 12:25:53;;;;;;;10.07;3.28;;;18.70;99.90;;;;;;4928115;29;20303;-82
2022/10/07 12:28:28;;;;;;;9.10;2.92;;;18.70;99.90;;;;;;4932476;29;20518;-84
2022/10/07 12:31:00;;;;;;;11.38;3.83;;;18.70;99.90;;;;;;4932647;29;20044;-81
2022/10/07 12:33:45;;;;;;;6.07;3.38;;;18.70;99.90;;;;;;4930775;29;20151;-83
2022/10/07 12:36:17;;;;;;;7.60;2.90;;;18.70;99.90;;;;;;4934451;29;20123;-82
2022/10/07 12:38:57;;;;;;;10.57;3.67;;;18.70;99.90;;;;;;4925345;29;20094;-83
2022/10/07 12:41:34;;;;;;;12.88;3.95;;;18.80;99.90;;;;;;4927859;29;20108;-82
2022/10/07 12:44:26;;;;;;;10.45;3.95;;;18.80;99.90;;;;;;4934763;29;20096;-82
2022/10/07 12:47:04;;;;;;;10.32;3.40;;;19.00;99.90;;;;;;4931765;29;20054;-83
2022/10/07 12:49:36;;;;;;;10.60;3.80;;;18.90;99.90;;;;;;4937966;29;20128;-82
2022/10/07 12:52:06;;;;;;;12.00;3.65;;;19.00;99.90;;;;;;4937472;29;20422;-82
2022/10/07 12:54:40;;;;;;;10.73;4.55;;;19.00;99.90;;;;;;4934283;29;20352;-82
2022/10/07 12:57:19;;;;;;;7.55;2.90;;;19.00;99.90;;;;;;4931172;29;20054;-83
2022/10/07 13:00:08;;;;;;;11.55;3.30;;;19.00;99.90;;;;;;4934134;29;20052;-83
2022/10/07 13:02:35;;;;;;;10.83;3.50;;;19.10;99.90;;;;;;4923999;29;20198;-82
2022/10/07 13:05:23;;;;;;;13.52;4.05;;;19.10;99.90;;;;;;4923425;29;20078;-83
2022/10/07 13:08:08;;;;;;;11.88;3.97;;;19.10;99.90;;;;;;4935404;29;20048;-82
2022/10/07 13:11:03;;;;;;;14.05;3.58;;;19.10;99.90;;;;;;4935485;29;20056;-83
2022/10/07 13:13:32;;;;;;;8.90;3.53;;;19.10;99.90;;;;;;4939814;29;20059;-84
2022/10/07 13:16:12;;;;;;;9.40;3.30;;;19.10;99.90;;;;;;4934827;29;20043;-82
2022/10/07 13:18:53;;;;;;;8.13;3.33;;;19.20;99.90;;;;;;4935562;29;20347;-81